Time;durP1;ratioP1;P1;durP2;ratioP2;P2;SDS_P1;SDS_P2;PMS_P1;PMS_P2;Temp;Humidity;BMP_temperature;BMP_pressure;BME280_temperature;BME280_humidity;BME280_pressure;Samples;Min_cycle;Max_cycle;Signal;HPM_P1;HPM_P2
2022/01/11 00:00:20;;;;;;;85.80;51.57;;;0.70;99.90;;;;;;637254;224;26632;-78
2022/01/11 00:02:45;;;;;;;95.13;52.40;;;0.70;99.90;;;;;;636986;223;26795;-78
2022/01/11 00:05:22;;;;;;;90.60;51.50;;;0.80;99.90;;;;;;637030;225;26609;-78
2022/01/11 00:07:45;;;;;;;100.47;54.60;;;0.70;99.90;;;;;;636681;225;26572;-79
2022/01/11 00:10:20;;;;;;;92.00;51.43;;;0.60;99.90;;;;;;636953;222;27116;-79
2022/01/11 00:12:39;;;;;;;99.43;53.67;;;0.50;99.90;;;;;;636272;225;26579;-78
2022/01/11 00:15:07;;;;;;;94.13;53.10;;;0.50;99.90;;;;;;637000;225;26867;-79
2022/01/11 00:17:34;;;;;;;92.93;52.37;;;0.70;99.90;;;;;;637003;224;26564;-79
2022/01/11 00:20:02;;;;;;;91.90;51.23;;;0.60;99.90;;;;;;636928;224;26640;-79
2022/01/11 00:22:33;;;;;;;93.40;54.13;;;0.60;99.90;;;;;;636977;224;26800;-79
2022/01/11 00:24:56;;;;;;;94.67;53.53;;;0.50;99.90;;;;;;636707;225;26569;-78
2022/01/11 00:27:24;;;;;;;91.00;52.53;;;0.40;99.90;;;;;;636992;224;26802;-78
2022/01/11 00:29:53;;;;;;;91.60;51.70;;;0.30;99.90;;;;;;636968;219;26861;-78
2022/01/11 00:32:28;;;;;;;97.60;55.00;;;0.40;99.90;;;;;;636875;225;26576;-78
2022/01/11 00:34:51;;;;;;;101.13;53.90;;;0.40;99.90;;;;;;636077;225;27032;-78
2022/01/11 00:37:15;;;;;;;97.50;53.93;;;0.50;99.90;;;;;;637645;223;26819;-79
2022/01/11 00:39:45;;;;;;;92.27;52.60;;;0.60;99.90;;;;;;638221;220;26564;-78
2022/01/11 00:42:10;;;;;;;102.47;54.80;;;0.50;99.90;;;;;;637811;225;26900;-78
2022/01/11 00:44:37;;;;;;;103.20;55.67;;;0.70;99.90;;;;;;637887;223;26571;-78
2022/01/11 00:47:04;;;;;;;102.17;54.53;;;0.90;99.90;;;;;;637662;225;26795;-78
2022/01/11 00:49:34;;;;;;;106.20;56.30;;;1.30;99.90;;;;;;637637;224;26523;-79
2022/01/11 00:52:00;;;;;;;108.40;56.20;;;1.30;99.90;;;;;;637687;219;26507;-80
2022/01/11 00:54:27;;;;;;;102.47;54.93;;;1.30;99.90;;;;;;637649;224;26535;-79
2022/01/11 00:56:54;;;;;;;97.13;54.47;;;1.50;99.90;;;;;;637478;224;26613;-78
2022/01/11 00:59:22;;;;;;;103.77;56.60;;;1.60;99.90;;;;;;637457;225;26574;-79
2022/01/11 01:01:49;;;;;;;103.23;56.40;;;1.60;99.90;;;;;;637568;221;26597;-79
2022/01/11 01:04:16;;;;;;;108.40;57.83;;;1.40;99.90;;;;;;637470;224;26599;-79
2022/01/11 01:06:45;;;;;;;108.97;58.60;;;1.40;99.90;;;;;;637478;224;26594;-79
2022/01/11 01:09:10;;;;;;;106.90;56.00;;;1.10;99.90;;;;;;637272;225;26577;-79
2022/01/11 01:11:38;;;;;;;104.07;55.60;;;1.00;99.90;;;;;;637326;224;26571;-79
2022/01/11 01:14:06;;;;;;;105.53;55.27;;;0.90;99.90;;;;;;637182;225;26593;-78
2022/01/11 01:16:33;;;;;;;102.67;56.50;;;0.90;99.90;;;;;;637095;224;26593;-79
2022/01/11 01:19:00;;;;;;;103.07;56.53;;;1.10;99.90;;;;;;637037;224;26584;-79
2022/01/11 01:21:30;;;;;;;107.83;57.47;;;1.30;99.90;;;;;;636976;224;26638;-79
2022/01/11 01:23:55;;;;;;;106.00;55.20;;;1.20;99.90;;;;;;636842;223;26563;-79
2022/01/11 01:26:23;;;;;;;97.47;55.07;;;1.30;99.90;;;;;;636948;224;26569;-79
2022/01/11 01:28:50;;;;;;;109.70;57.73;;;1.40;99.90;;;;;;636928;225;26549;-79
2022/01/11 01:31:18;;;;;;;108.30;56.80;;;1.40;99.90;;;;;;636963;224;26818;-79
2022/01/11 01:33:45;;;;;;;102.57;54.80;;;1.50;99.90;;;;;;636843;225;26562;-79
2022/01/11 01:36:12;;;;;;;112.47;57.47;;;1.20;99.90;;;;;;636912;224;26583;-78
2022/01/11 01:38:40;;;;;;;95.97;51.60;;;1.30;99.90;;;;;;636939;224;26568;-79
2022/01/11 01:41:14;;;;;;;105.67;55.23;;;1.50;99.90;;;;;;636917;226;26596;-78
2022/01/11 01:43:36;;;;;;;107.67;56.50;;;1.40;99.90;;;;;;636586;225;26572;-77
2022/01/11 01:46:04;;;;;;;100.00;53.53;;;1.30;99.90;;;;;;636998;224;26581;-77
2022/01/11 01:48:32;;;;;;;109.60;56.60;;;1.40;99.90;;;;;;637864;223;26591;-78
2022/01/11 01:50:59;;;;;;;111.03;55.83;;;1.40;99.90;;;;;;638278;224;26612;-78
2022/01/11 01:53:27;;;;;;;109.37;55.37;;;1.40;99.90;;;;;;637904;223;26560;-78
2022/01/11 01:55:54;;;;;;;98.77;54.20;;;1.60;99.90;;;;;;637671;223;26642;-78
2022/01/11 01:58:21;;;;;;;100.93;53.87;;;1.80;99.90;;;;;;637483;225;26524;-79
2022/01/11 02:00:54;;;;;;;108.93;56.13;;;1.90;99.90;;;;;;637373;225;26562;-78
2022/01/11 02:03:18;;;;;;;108.87;55.80;;;2.00;99.90;;;;;;637170;225;26559;-78
2022/01/11 02:05:45;;;;;;;105.67;54.00;;;2.00;99.90;;;;;;637412;224;27189;-78
2022/01/11 02:08:13;;;;;;;112.33;55.07;;;1.90;99.90;;;;;;637195;225;26583;-78
2022/01/11 02:10:41;;;;;;;103.40;52.90;;;1.80;99.90;;;;;;637270;224;26603;-77
2022/01/11 02:13:09;;;;;;;104.70;53.50;;;1.50;99.90;;;;;;637279;224;26597;-79
2022/01/11 02:15:37;;;;;;;105.50;51.80;;;1.20;99.90;;;;;;637293;224;26559;-78
2022/01/11 02:18:06;;;;;;;101.50;51.30;;;1.10;99.90;;;;;;637314;224;26564;-78
2022/01/11 02:20:33;;;;;;;93.53;50.03;;;1.10;99.90;;;;;;637820;224;26533;-78
2022/01/11 02:23:00;;;;;;;100.13;49.83;;;1.20;99.90;;;;;;637948;224;26734;-80
2022/01/11 02:25:27;;;;;;;103.53;50.40;;;1.30;99.90;;;;;;637638;224;26545;-80
2022/01/11 02:27:54;;;;;;;97.93;48.10;;;1.20;99.90;;;;;;637620;224;26779;-80
2022/01/11 02:30:22;;;;;;;96.53;47.63;;;1.10;99.90;;;;;;637625;224;26545;-80
2022/01/11 02:32:50;;;;;;;95.73;46.83;;;1.10;99.90;;;;;;637615;224;27003;-80
2022/01/11 02:35:18;;;;;;;105.33;49.97;;;1.10;99.90;;;;;;637589;223;26527;-80
2022/01/11 02:37:45;;;;;;;100.47;49.07;;;1.20;99.90;;;;;;637607;226;26559;-80
2022/01/11 02:40:12;;;;;;;106.03;50.20;;;1.40;99.90;;;;;;637566;224;26575;-80
2022/01/11 02:42:39;;;;;;;99.73;47.57;;;1.60;99.90;;;;;;637597;226;26545;-80
2022/01/11 02:45:12;;;;;;;109.63;50.40;;;1.60;99.90;;;;;;637650;224;26529;-80
2022/01/11 02:47:39;;;;;;;99.50;48.97;;;1.40;99.90;;;;;;637604;224;26560;-80
2022/01/11 02:50:07;;;;;;;100.60;48.70;;;1.40;99.90;;;;;;637546;224;26562;-81
2022/01/11 02:52:35;;;;;;;104.03;48.00;;;1.60;99.90;;;;;;637647;226;26537;-81
2022/01/11 02:55:02;;;;;;;104.50;47.17;;;1.70;99.90;;;;;;637600;224;26523;-80
2022/01/11 02:57:30;;;;;;;97.50;47.07;;;1.50;99.90;;;;;;637607;225;26558;-80
2022/01/11 02:59:57;;;;;;;91.20;44.57;;;1.50;99.90;;;;;;637587;223;26594;-80
2022/01/11 03:02:24;;;;;;;105.20;47.57;;;1.30;99.90;;;;;;638413;224;26588;-79
2022/01/11 03:04:51;;;;;;;97.17;45.13;;;1.20;99.90;;;;;;638096;223;26557;-80
2022/01/11 03:07:19;;;;;;;91.63;43.27;;;1.30;99.90;;;;;;637907;225;26558;-80
2022/01/11 03:10:04;;;;;;;89.63;43.80;;;1.30;99.90;;;;;;637700;223;26801;-80
2022/01/11 03:12:24;;;;;;;99.03;43.03;;;1.40;99.90;;;;;;636967;225;26524;-79
2022/01/11 03:14:51;;;;;;;91.83;43.57;;;1.40;99.90;;;;;;637569;225;26516;-80
2022/01/11 03:17:18;;;;;;;92.83;42.37;;;1.40;99.90;;;;;;637630;225;26507;-80
2022/01/11 03:19:45;;;;;;;98.13;45.03;;;1.30;99.90;;;;;;637347;221;26797;-77
2022/01/11 03:22:12;;;;;;;79.00;40.27;;;1.30;99.90;;;;;;637312;224;26585;-77
2022/01/11 03:24:40;;;;;;;90.27;42.67;;;1.30;99.90;;;;;;637270;224;26792;-77
2022/01/11 03:27:07;;;;;;;92.70;42.73;;;1.40;99.90;;;;;;637295;222;26594;-77
2022/01/11 03:29:34;;;;;;;92.23;40.97;;;1.60;99.90;;;;;;637345;224;26797;-77
2022/01/11 03:32:01;;;;;;;88.60;42.10;;;1.70;99.90;;;;;;637925;224;26519;-77
2022/01/11 03:34:28;;;;;;;87.53;41.47;;;1.70;99.90;;;;;;637930;224;26735;-78
2022/01/11 03:36:57;;;;;;;91.10;42.77;;;1.70;99.90;;;;;;637204;224;26592;-78
2022/01/11 03:39:24;;;;;;;89.20;40.43;;;1.80;99.90;;;;;;636923;222;26782;-77
2022/01/11 03:41:51;;;;;;;87.77;42.00;;;1.80;99.90;;;;;;636913;221;26588;-77
2022/01/11 03:44:19;;;;;;;95.20;42.90;;;1.80;99.90;;;;;;636902;222;26592;-77
2022/01/11 03:46:47;;;;;;;88.63;41.83;;;1.70;99.90;;;;;;636912;226;26561;-77
2022/01/11 03:49:15;;;;;;;88.67;42.43;;;1.70;99.90;;;;;;636966;224;26579;-77
2022/01/11 03:51:45;;;;;;;90.47;41.20;;;1.60;99.90;;;;;;636972;224;26581;-77
2022/01/11 03:54:14;;;;;;;87.87;43.17;;;1.70;99.90;;;;;;636851;225;26588;-77
2022/01/11 03:56:36;;;;;;;88.50;40.03;;;1.60;99.90;;;;;;636621;225;26802;-77
2022/01/11 03:59:06;;;;;;;82.30;39.83;;;1.50;99.90;;;;;;636849;224;26616;-77
2022/01/11 04:01:31;;;;;;;93.70;42.13;;;1.70;99.90;;;;;;636698;225;26947;-77
2022/01/11 04:03:58;;;;;;;79.30;38.40;;;1.70;99.90;;;;;;636833;224;26556;-77
2022/01/11 04:06:27;;;;;;;78.63;38.00;;;1.80;99.90;;;;;;636897;219;27358;-77
2022/01/11 04:08:52;;;;;;;81.77;39.00;;;1.60;99.90;;;;;;636812;224;26565;-77
2022/01/11 04:11:19;;;;;;;83.37;38.87;;;1.50;99.90;;;;;;637485;223;26862;-77
2022/01/11 04:13:47;;;;;;;78.50;37.93;;;1.50;99.90;;;;;;638598;218;26584;-77
2022/01/11 04:16:14;;;;;;;83.60;39.30;;;1.60;99.90;;;;;;638169;223;26764;-77
2022/01/11 04:18:41;;;;;;;85.47;38.47;;;1.60;99.90;;;;;;637816;225;26576;-77
2022/01/11 04:21:08;;;;;;;77.37;36.97;;;1.80;99.90;;;;;;637765;223;26610;-77
2022/01/11 04:23:36;;;;;;;78.67;39.43;;;2.00;99.90;;;;;;637696;224;26519;-77
2022/01/11 04:26:04;;;;;;;74.63;36.83;;;1.80;99.90;;;;;;637705;224;26476;-77
2022/01/11 04:28:32;;;;;;;72.47;34.93;;;1.50;99.90;;;;;;637791;224;26520;-78
2022/01/11 04:31:00;;;;;;;74.00;35.53;;;1.10;99.90;;;;;;637462;224;26600;-77
2022/01/11 04:33:27;;;;;;;67.77;32.70;;;1.10;99.90;;;;;;637437;224;26569;-77
2022/01/11 04:35:55;;;;;;;68.93;31.23;;;0.90;99.90;;;;;;637376;224;26577;-77
2022/01/11 04:38:22;;;;;;;71.37;33.47;;;0.70;99.90;;;;;;637455;224;26789;-77
2022/01/11 04:40:49;;;;;;;74.80;34.00;;;1.00;99.90;;;;;;637437;225;26597;-77
2022/01/11 04:43:16;;;;;;;70.77;32.53;;;1.30;99.90;;;;;;637302;224;26847;-77
2022/01/11 04:45:43;;;;;;;79.13;34.10;;;1.60;99.90;;;;;;637200;224;26592;-77
2022/01/11 04:48:11;;;;;;;65.60;33.40;;;1.70;99.90;;;;;;636975;224;26826;-77
2022/01/11 04:50:38;;;;;;;66.87;33.57;;;1.80;99.90;;;;;;636809;224;26564;-77
2022/01/11 04:53:05;;;;;;;71.03;32.90;;;2.00;99.90;;;;;;636881;225;26915;-76
2022/01/11 04:55:32;;;;;;;77.50;35.63;;;2.10;99.90;;;;;;636888;224;26582;-77
2022/01/11 04:58:00;;;;;;;73.17;36.17;;;2.10;99.90;;;;;;636932;224;26905;-77
2022/01/11 05:00:27;;;;;;;70.10;33.73;;;2.10;99.90;;;;;;636955;221;26579;-77
2022/01/11 05:02:58;;;;;;;68.57;34.43;;;2.30;99.90;;;;;;636946;224;26650;-77
2022/01/11 05:05:23;;;;;;;76.53;37.50;;;2.30;99.90;;;;;;636842;225;26927;-77
2022/01/11 05:07:50;;;;;;;71.80;35.37;;;2.30;99.90;;;;;;636835;224;26822;-76
2022/01/11 05:10:18;;;;;;;75.70;36.07;;;2.20;99.90;;;;;;636961;225;26793;-77
2022/01/11 05:12:45;;;;;;;74.70;33.87;;;2.00;99.90;;;;;;636961;219;26585;-77
2022/01/11 05:15:12;;;;;;;70.63;35.80;;;1.90;99.90;;;;;;636947;225;27247;-77
2022/01/11 05:17:39;;;;;;;66.57;32.20;;;1.80;99.90;;;;;;636970;224;26573;-77
2022/01/11 05:20:07;;;;;;;66.67;33.40;;;1.80;99.90;;;;;;636728;224;27285;-77
2022/01/11 05:22:35;;;;;;;61.17;32.40;;;1.60;99.90;;;;;;637235;223;26561;-77
2022/01/11 05:25:03;;;;;;;67.97;32.70;;;1.80;99.90;;;;;;638748;223;26575;-77
2022/01/11 05:27:30;;;;;;;67.23;31.93;;;1.70;99.90;;;;;;638166;223;26525;-77
2022/01/11 05:29:57;;;;;;;67.90;33.40;;;1.90;99.90;;;;;;637951;221;26833;-77
2022/01/11 05:32:24;;;;;;;72.73;34.67;;;1.80;99.90;;;;;;637863;225;26551;-77
2022/01/11 05:34:52;;;;;;;70.23;33.07;;;1.60;99.90;;;;;;637671;224;26777;-77
2022/01/11 05:37:19;;;;;;;76.77;34.37;;;1.70;99.90;;;;;;637709;224;26500;-78
2022/01/11 05:39:46;;;;;;;71.23;34.23;;;1.90;99.90;;;;;;637696;225;26769;-77
2022/01/11 05:42:13;;;;;;;73.27;36.63;;;2.00;99.90;;;;;;637541;224;26577;-77
2022/01/11 05:44:40;;;;;;;79.97;35.57;;;2.10;99.90;;;;;;637487;224;26786;-77
2022/01/11 05:47:08;;;;;;;75.47;34.97;;;2.20;99.90;;;;;;637388;224;26566;-77
2022/01/11 05:49:35;;;;;;;72.87;33.73;;;2.20;99.90;;;;;;637333;224;26931;-77
2022/01/11 05:52:03;;;;;;;71.90;34.73;;;2.00;99.90;;;;;;637460;225;26570;-77
2022/01/11 05:54:30;;;;;;;67.60;31.77;;;2.00;99.90;;;;;;637381;225;26880;-77
2022/01/11 05:56:57;;;;;;;65.13;33.00;;;2.00;99.90;;;;;;637465;219;26525;-77
2022/01/11 05:59:25;;;;;;;64.97;32.17;;;2.00;99.90;;;;;;637237;225;26846;-77
2022/01/11 06:01:52;;;;;;;70.47;34.07;;;2.00;99.90;;;;;;636975;224;26584;-77
2022/01/11 06:04:19;;;;;;;70.60;33.00;;;1.90;99.90;;;;;;636976;224;26814;-77
2022/01/11 06:06:47;;;;;;;68.43;31.73;;;1.90;99.90;;;;;;636934;224;26568;-77
2022/01/11 06:09:15;;;;;;;68.33;32.47;;;2.10;99.90;;;;;;636853;219;26576;-77
2022/01/11 06:11:43;;;;;;;68.07;31.70;;;2.10;99.90;;;;;;637026;224;26606;-77
2022/01/11 06:14:11;;;;;;;69.33;33.20;;;2.30;99.90;;;;;;636986;224;26590;-77
2022/01/11 06:16:39;;;;;;;69.00;35.80;;;2.20;99.90;;;;;;637018;224;26564;-77
2022/01/11 06:19:06;;;;;;;68.83;34.50;;;2.20;99.90;;;;;;637015;225;26588;-77
2022/01/11 06:21:33;;;;;;;72.27;33.67;;;2.30;99.90;;;;;;636941;224;26623;-77
2022/01/11 06:24:00;;;;;;;74.90;35.37;;;2.40;99.90;;;;;;637058;224;26892;-77
2022/01/11 06:26:28;;;;;;;71.23;34.03;;;2.40;99.90;;;;;;637064;224;26787;-77
2022/01/11 06:28:56;;;;;;;73.37;34.67;;;2.40;99.90;;;;;;636961;225;27206;-77
2022/01/11 06:31:22;;;;;;;73.07;34.07;;;2.40;99.90;;;;;;637510;224;26580;-77
2022/01/11 06:33:49;;;;;;;66.57;31.93;;;2.40;99.90;;;;;;637503;224;26736;-76
2022/01/11 06:36:18;;;;;;;75.40;33.97;;;2.20;99.90;;;;;;639355;223;26537;-77
2022/01/11 06:38:44;;;;;;;78.27;35.13;;;2.10;99.90;;;;;;638710;225;26743;-77
2022/01/11 06:41:11;;;;;;;64.60;32.00;;;1.60;99.90;;;;;;638245;223;26599;-77
2022/01/11 06:43:39;;;;;;;63.73;33.20;;;1.70;99.90;;;;;;637799;225;26547;-78
2022/01/11 06:46:07;;;;;;;67.10;33.33;;;1.90;99.90;;;;;;637662;225;26527;-77
2022/01/11 06:48:35;;;;;;;68.73;32.90;;;1.60;99.90;;;;;;637649;225;26511;-78
2022/01/11 06:51:03;;;;;;;62.90;31.43;;;1.60;99.90;;;;;;637555;219;26554;-77
2022/01/11 06:53:31;;;;;;;65.70;33.43;;;1.80;99.90;;;;;;637256;224;26576;-77
2022/01/11 06:55:57;;;;;;;70.57;33.27;;;2.00;99.90;;;;;;637037;225;26910;-78
2022/01/11 06:58:24;;;;;;;63.53;31.53;;;2.20;99.90;;;;;;637142;224;26579;-77
2022/01/11 07:00:51;;;;;;;67.20;32.13;;;2.10;99.90;;;;;;637117;224;27012;-77
2022/01/11 07:03:19;;;;;;;68.67;32.37;;;2.00;99.90;;;;;;637247;224;26597;-77
2022/01/11 07:05:46;;;;;;;62.73;31.23;;;2.00;99.90;;;;;;637225;224;26936;-77
2022/01/11 07:08:13;;;;;;;63.63;31.17;;;2.00;99.90;;;;;;637233;225;26567;-78
2022/01/11 07:10:40;;;;;;;67.13;29.57;;;2.00;99.90;;;;;;636971;225;26931;-77
2022/01/11 07:13:07;;;;;;;60.70;29.80;;;2.00;99.90;;;;;;636788;224;26581;-77
2022/01/11 07:15:35;;;;;;;62.40;29.07;;;2.00;99.90;;;;;;636674;226;26850;-77
2022/01/11 07:18:08;;;;;;;59.63;30.20;;;1.90;99.90;;;;;;636691;226;26612;-77
2022/01/11 07:20:30;;;;;;;57.90;29.23;;;1.90;99.90;;;;;;636401;221;26581;-77
2022/01/11 07:22:57;;;;;;;65.00;29.57;;;2.00;99.90;;;;;;636926;224;26846;-78
2022/01/11 07:25:26;;;;;;;66.43;32.30;;;2.00;99.90;;;;;;636974;225;26597;-77
2022/01/11 07:27:52;;;;;;;56.50;28.03;;;2.10;99.90;;;;;;636945;224;26920;-77
2022/01/11 07:30:19;;;;;;;61.87;30.43;;;1.90;99.90;;;;;;637159;224;26790;-80
2022/01/11 07:32:46;;;;;;;58.30;30.10;;;1.80;99.90;;;;;;637054;225;26782;-77
2022/01/11 07:35:13;;;;;;;51.93;28.50;;;1.80;99.90;;;;;;636960;224;26604;-78
2022/01/11 07:37:41;;;;;;;56.97;28.77;;;1.60;99.90;;;;;;637045;224;26881;-77
2022/01/11 07:40:09;;;;;;;51.80;27.67;;;1.80;99.90;;;;;;636943;222;26599;-77
2022/01/11 07:42:36;;;;;;;49.93;26.83;;;1.80;99.90;;;;;;637533;224;26565;-78
2022/01/11 07:45:03;;;;;;;49.90;25.80;;;1.90;99.90;;;;;;637514;224;26766;-78
2022/01/11 07:47:31;;;;;;;50.27;25.77;;;2.00;99.90;;;;;;642041;221;26543;-77
2022/01/11 07:49:59;;;;;;;51.90;26.83;;;2.10;99.90;;;;;;643249;221;26510;-78
2022/01/11 07:52:26;;;;;;;50.00;25.23;;;2.30;99.90;;;;;;640299;221;26883;-77
2022/01/11 07:54:56;;;;;;;50.90;26.37;;;2.40;99.90;;;;;;643685;221;26558;-77
2022/01/11 07:57:22;;;;;;;52.60;27.87;;;2.50;99.90;;;;;;641808;222;26532;-77
2022/01/11 07:59:50;;;;;;;49.80;26.13;;;2.60;99.90;;;;;;644806;221;26548;-76
2022/01/11 08:02:17;;;;;;;56.93;27.53;;;2.50;99.90;;;;;;642229;222;26486;-76
2022/01/11 08:04:44;;;;;;;51.80;26.57;;;2.40;99.90;;;;;;642284;222;26859;-78
2022/01/11 08:07:11;;;;;;;51.97;27.70;;;2.40;99.90;;;;;;648008;222;26487;-77
2022/01/11 08:09:38;;;;;;;49.87;26.60;;;2.20;99.90;;;;;;647984;222;26746;-77
2022/01/11 08:12:06;;;;;;;53.00;26.03;;;2.20;99.90;;;;;;648028;222;26491;-77
2022/01/11 08:14:33;;;;;;;45.33;25.90;;;2.40;99.90;;;;;;648017;222;26750;-77
2022/01/11 08:17:01;;;;;;;45.37;25.40;;;2.50;99.90;;;;;;647986;222;26487;-77
2022/01/11 08:19:28;;;;;;;50.87;25.53;;;2.50;99.90;;;;;;648001;218;26734;-78
2022/01/11 08:21:56;;;;;;;45.27;24.87;;;2.40;99.90;;;;;;647902;222;26519;-77
2022/01/11 08:24:24;;;;;;;47.30;25.90;;;2.50;99.90;;;;;;647642;222;26506;-78
2022/01/11 08:26:51;;;;;;;49.30;26.50;;;2.60;99.90;;;;;;647678;222;26784;-77
2022/01/11 08:29:18;;;;;;;48.27;26.53;;;2.30;99.90;;;;;;647538;221;26543;-77
2022/01/11 08:31:46;;;;;;;45.37;26.07;;;2.30;99.90;;;;;;647636;222;26846;-77
2022/01/11 08:34:14;;;;;;;47.67;25.80;;;2.40;99.90;;;;;;647672;217;26729;-78
2022/01/11 08:36:40;;;;;;;48.03;26.20;;;2.30;99.90;;;;;;647415;222;26894;-81
2022/01/11 08:39:07;;;;;;;47.70;25.60;;;2.20;99.90;;;;;;647014;222;26571;-80
2022/01/11 08:41:34;;;;;;;45.63;23.77;;;2.30;99.90;;;;;;646983;222;26824;-80
2022/01/11 08:44:02;;;;;;;48.97;25.47;;;2.30;99.90;;;;;;647017;222;26570;-82
2022/01/11 08:46:29;;;;;;;43.03;23.53;;;2.50;99.90;;;;;;647084;222;26817;-82
2022/01/11 08:48:57;;;;;;;42.53;24.97;;;2.60;99.90;;;;;;647081;222;26567;-83
2022/01/11 08:51:25;;;;;;;48.20;27.37;;;2.70;99.90;;;;;;647330;222;26826;-77
2022/01/11 08:53:53;;;;;;;42.47;24.40;;;2.80;99.90;;;;;;644908;221;26595;-77
2022/01/11 08:56:21;;;;;;;50.30;25.23;;;2.70;99.90;;;;;;642952;222;26564;-78
2022/01/11 08:58:49;;;;;;;44.97;23.90;;;2.60;99.90;;;;;;639653;222;26528;-76
2022/01/11 09:01:16;;;;;;;44.80;25.50;;;2.60;99.90;;;;;;638352;221;26581;-76
2022/01/11 09:03:43;;;;;;;47.03;24.80;;;2.80;99.90;;;;;;640966;223;26556;-76
2022/01/11 09:06:10;;;;;;;48.87;26.10;;;2.90;99.90;;;;;;641497;223;26796;-77
2022/01/11 09:08:37;;;;;;;46.50;26.10;;;3.00;99.90;;;;;;637694;224;26511;-77
2022/01/11 09:11:05;;;;;;;46.60;25.10;;;3.10;99.90;;;;;;638872;224;27264;-77
2022/01/11 09:13:32;;;;;;;49.03;26.57;;;3.10;99.90;;;;;;641162;224;26521;-77
2022/01/11 09:15:59;;;;;;;47.33;26.00;;;3.10;99.90;;;;;;640922;224;26848;-76
2022/01/11 09:18:29;;;;;;;43.57;25.17;;;3.10;99.90;;;;;;640808;223;26576;-77
2022/01/11 09:21:00;;;;;;;46.53;26.17;;;3.10;99.90;;;;;;639686;223;26614;-77
2022/01/11 09:23:25;;;;;;;48.63;27.27;;;3.20;99.90;;;;;;642538;222;26599;-76
2022/01/11 09:25:52;;;;;;;47.33;27.07;;;3.20;99.90;;;;;;640410;222;26561;-77
2022/01/11 09:28:19;;;;;;;45.83;26.97;;;3.10;99.90;;;;;;641822;222;26594;-77
2022/01/11 09:30:47;;;;;;;43.73;26.33;;;3.10;99.90;;;;;;647317;218;26839;-76
2022/01/11 09:33:14;;;;;;;47.80;27.30;;;3.10;99.90;;;;;;647376;222;26575;-76
2022/01/11 09:35:41;;;;;;;53.57;25.23;;;3.30;99.90;;;;;;648846;221;26771;-76
2022/01/11 09:38:08;;;;;;;41.90;24.67;;;3.30;99.90;;;;;;649895;221;26518;-76
2022/01/11 09:40:35;;;;;;;40.20;23.57;;;3.50;99.90;;;;;;649711;221;26807;-76
2022/01/11 09:43:03;;;;;;;44.83;25.03;;;3.40;99.90;;;;;;649592;221;26522;-77
2022/01/11 09:45:31;;;;;;;41.77;24.73;;;3.30;99.90;;;;;;649662;221;26868;-77
2022/01/11 09:47:58;;;;;;;44.97;25.70;;;3.30;99.90;;;;;;649780;221;26854;-77
2022/01/11 09:50:26;;;;;;;43.47;24.83;;;3.30;99.90;;;;;;649747;221;26554;-77
2022/01/11 09:52:54;;;;;;;40.47;25.13;;;3.30;99.90;;;;;;649493;221;26566;-78
2022/01/11 09:55:22;;;;;;;46.03;25.57;;;3.30;99.90;;;;;;646869;222;26588;-77
2022/01/11 09:57:50;;;;;;;43.83;24.27;;;3.50;99.90;;;;;;646937;222;26586;-76
2022/01/11 10:00:17;;;;;;;41.17;23.83;;;3.40;99.90;;;;;;638017;222;26624;-75
2022/01/11 10:02:46;;;;;;;48.27;25.30;;;3.60;99.90;;;;;;638724;224;26634;-77
2022/01/11 10:05:12;;;;;;;43.60;24.63;;;3.50;99.90;;;;;;638678;222;26935;-78
2022/01/11 10:07:40;;;;;;;44.90;24.70;;;3.60;99.90;;;;;;638997;224;26587;-77
2022/01/11 10:10:06;;;;;;;40.03;25.13;;;3.60;99.90;;;;;;641438;221;26817;-77
2022/01/11 10:12:55;;;;;;;43.03;23.53;;;3.50;99.90;;;;;;641180;224;26537;-76
2022/01/11 10:15:28;;;;;;;43.47;26.00;;;3.50;99.90;;;;;;640304;223;26767;-76
2022/01/11 10:17:55;;;;;;;38.73;23.47;;;3.50;99.90;;;;;;641533;224;26558;-76
2022/01/11 10:20:23;;;;;;;41.30;24.53;;;3.60;99.90;;;;;;640671;219;26559;-77
2022/01/11 10:22:52;;;;;;;42.17;23.73;;;3.60;99.90;;;;;;637551;224;26532;-76
2022/01/11 10:25:19;;;;;;;43.17;24.77;;;3.40;99.90;;;;;;637411;225;26804;-76
2022/01/11 10:27:53;;;;;;;47.40;23.83;;;3.50;99.90;;;;;;637437;224;26590;-77
2022/01/11 10:30:23;;;;;;;38.33;23.60;;;3.60;99.90;;;;;;637244;219;26587;-76
2022/01/11 10:32:47;;;;;;;40.17;23.40;;;3.20;99.90;;;;;;637947;224;26572;-77
2022/01/11 10:35:18;;;;;;;38.23;22.73;;;2.70;99.90;;;;;;643676;222;26598;-76
2022/01/11 10:37:44;;;;;;;40.97;23.77;;;2.70;99.90;;;;;;647267;222;26551;-76
2022/01/11 10:40:12;;;;;;;37.83;21.93;;;2.50;99.90;;;;;;647403;222;26809;-76
2022/01/11 10:42:41;;;;;;;39.47;22.97;;;2.60;99.90;;;;;;645010;222;26591;-76
2022/01/11 10:45:08;;;;;;;43.67;23.73;;;3.10;99.90;;;;;;637062;225;26880;-77
2022/01/11 10:47:37;;;;;;;44.40;24.23;;;3.40;99.90;;;;;;642848;222;26607;-76
2022/01/11 10:50:22;;;;;;;41.00;22.43;;;3.60;99.90;;;;;;638988;217;26867;-76
2022/01/11 10:52:47;;;;;;;42.03;23.77;;;4.00;99.90;;;;;;645731;222;26618;-83
2022/01/11 10:55:15;;;;;;;40.77;24.03;;;4.00;99.90;;;;;;641583;217;26565;-80
2022/01/11 10:57:44;;;;;;;40.87;23.47;;;4.10;99.90;;;;;;636967;223;26589;-79
2022/01/11 11:00:11;;;;;;;37.17;23.83;;;4.20;99.90;;;;;;639481;223;26619;-80
2022/01/11 11:02:39;;;;;;;37.50;24.00;;;4.20;99.90;;;;;;640247;224;26573;-80
2022/01/11 11:05:15;;;;;;;41.27;24.63;;;4.30;99.90;;;;;;640444;224;26573;-80
2022/01/11 11:07:42;;;;;;;42.73;24.20;;;4.40;99.90;;;;;;640276;224;27215;-81
2022/01/11 11:10:10;;;;;;;40.07;22.33;;;4.50;99.90;;;;;;640360;224;26578;-80
2022/01/11 11:12:37;;;;;;;43.53;22.97;;;4.50;99.90;;;;;;640356;224;26873;-80
2022/01/11 11:15:06;;;;;;;36.63;22.87;;;4.50;99.90;;;;;;640408;224;26571;-82
2022/01/11 11:17:32;;;;;;;37.47;22.70;;;4.60;99.90;;;;;;640956;224;26799;-80
2022/01/11 11:20:00;;;;;;;41.33;23.83;;;4.60;99.90;;;;;;640939;219;26780;-80
2022/01/11 11:22:28;;;;;;;40.83;23.73;;;4.60;99.90;;;;;;642792;222;26526;-80
2022/01/11 11:24:56;;;;;;;38.40;22.90;;;4.70;99.90;;;;;;642339;223;26488;-80
2022/01/11 11:27:24;;;;;;;44.57;24.53;;;4.80;99.90;;;;;;642029;224;26545;-81
2022/01/11 11:29:52;;;;;;;39.60;23.30;;;4.90;99.90;;;;;;641966;223;26592;-80
2022/01/11 11:32:19;;;;;;;41.30;23.40;;;4.90;99.90;;;;;;641733;219;26500;-81
2022/01/11 11:34:49;;;;;;;40.93;21.53;;;5.10;99.90;;;;;;641720;223;26485;-80
2022/01/11 11:37:17;;;;;;;35.80;21.90;;;5.20;99.90;;;;;;641718;223;26482;-81
2022/01/11 11:39:44;;;;;;;40.80;21.60;;;4.60;99.90;;;;;;641398;224;26534;-81
2022/01/11 11:42:11;;;;;;;36.00;21.37;;;4.20;99.90;;;;;;641455;223;26547;-81
2022/01/11 11:44:43;;;;;;;35.33;21.37;;;3.70;99.90;;;;;;640995;224;26543;-79
2022/01/11 11:47:06;;;;;;;37.27;23.30;;;4.00;99.90;;;;;;640980;224;26588;-80
2022/01/11 11:49:40;;;;;;;35.60;21.30;;;4.20;99.90;;;;;;641108;223;26573;-81
2022/01/11 11:52:16;;;;;;;37.50;23.17;;;3.70;99.90;;;;;;640839;223;27319;-81
2022/01/11 11:54:48;;;;;;;36.07;23.07;;;3.70;99.90;;;;;;640819;223;26557;-80
2022/01/11 11:57:16;;;;;;;39.07;21.97;;;4.20;99.90;;;;;;640530;224;26540;-80
2022/01/11 11:59:50;;;;;;;38.17;22.37;;;4.20;99.90;;;;;;640477;224;26535;-81
2022/01/11 12:02:16;;;;;;;37.50;23.27;;;4.40;99.90;;;;;;640496;224;26557;-81
2022/01/11 12:04:50;;;;;;;37.60;23.00;;;4.50;99.90;;;;;;638418;224;26563;-81
2022/01/11 12:07:26;;;;;;;38.53;24.37;;;3.50;99.90;;;;;;640457;224;26528;-80
2022/01/11 12:09:53;;;;;;;33.30;21.50;;;3.10;99.90;;;;;;640456;224;26875;-80
2022/01/11 12:12:32;;;;;;;38.43;22.93;;;2.60;99.90;;;;;;640453;224;26794;-80
2022/01/11 12:15:00;;;;;;;39.20;23.87;;;2.80;99.90;;;;;;640670;224;26517;-80
2022/01/11 12:17:28;;;;;;;38.33;23.73;;;2.70;99.90;;;;;;640596;224;26545;-80
2022/01/11 12:19:56;;;;;;;43.23;23.67;;;2.90;99.90;;;;;;640651;224;26529;-80
2022/01/11 12:22:24;;;;;;;37.27;23.00;;;2.70;99.90;;;;;;640688;224;26515;-80
2022/01/11 12:24:52;;;;;;;36.13;23.23;;;2.40;99.90;;;;;;640524;224;26520;-80
2022/01/11 12:27:21;;;;;;;39.60;23.63;;;2.40;99.90;;;;;;640674;219;26524;-81
2022/01/11 12:29:54;;;;;;;39.97;23.57;;;2.60;99.90;;;;;;640518;224;26514;-81
2022/01/11 12:32:23;;;;;;;38.17;24.10;;;2.90;99.90;;;;;;641110;222;26503;-80
2022/01/11 12:34:56;;;;;;;38.13;22.73;;;3.00;99.90;;;;;;642071;224;27126;-81
2022/01/11 12:37:30;;;;;;;37.17;23.73;;;3.00;99.90;;;;;;641704;224;27248;-80